Time;durP1;ratioP1;P1;durP2;ratioP2;P2;SDS_P1;SDS_P2;PMS_P1;PMS_P2;Temp;Humidity;BMP_temperature;BMP_pressure;BME280_temperature;BME280_humidity;BME280_pressure;Samples;Min_cycle;Max_cycle;Signal;HPM_P1;HPM_P2
2021/10/30 00:01:13;;;;;;;18.00;2.57;;;;;;;;;;4873750;28;20239;-78
2021/10/30 00:03:36;;;;;;;8.67;1.40;;;;;;;;;;4893593;28;20189;-77
2021/10/30 00:05:59;;;;;;;6.73;1.10;;;;;;;;;;4892730;28;20619;-77
2021/10/30 00:08:22;;;;;;;15.60;2.33;;;;;;;;;;4892746;28;20723;-78
2021/10/30 00:10:47;;;;;;;9.93;1.57;;;1.80;43.90;;;;;;4892917;28;20181;-77
2021/10/30 00:13:12;;;;;;;18.77;2.63;;;0.70;50.90;;;;;;4892793;28;20230;-78
2021/10/30 00:15:34;;;;;;;8.70;1.40;;;;;;;;;;4893211;28;20177;-77
2021/10/30 00:17:57;;;;;;;8.57;1.30;;;;;;;;;;4892698;28;20200;-77
2021/10/30 00:20:20;;;;;;;13.93;2.10;;;;;;;;;;4892377;28;20899;-77
2021/10/30 00:22:43;;;;;;;10.20;1.67;;;;;;;;;;4886952;28;20186;-78
2021/10/30 00:25:06;;;;;;;19.90;2.87;;;1.80;43.80;;;;;;4890062;28;20208;-77
2021/10/30 00:27:29;;;;;;;11.23;1.77;;;;;;;;;;4881313;28;20193;-78
2021/10/30 00:29:53;;;;;;;10.07;1.53;;;1.80;43.60;;;;;;4888699;28;20181;-78
2021/10/30 00:32:16;;;;;;;16.40;2.37;;;;;;;;;;4892248;28;20193;-78
2021/10/30 00:34:39;;;;;;;9.70;1.43;;;;;;;;;;4893137;28;20189;-77
2021/10/30 00:37:02;;;;;;;13.40;1.93;;;;;;;;;;4892299;28;20192;-79
2021/10/30 00:39:25;;;;;;;18.33;2.70;;;;;;;;;;4892319;28;20201;-77
2021/10/30 00:41:47;;;;;;;9.70;1.50;;;;;;;;;;4893030;28;20185;-79
2021/10/30 00:44:10;;;;;;;19.83;2.83;;;;;;;;;;4892126;28;20192;-78
2021/10/30 00:46:34;;;;;;;10.60;1.60;;;1.60;43.80;;;;;;4892055;28;20677;-80
2021/10/30 00:48:57;;;;;;;10.77;1.77;;;;;;;;;;4874501;28;20552;-78
2021/10/30 00:51:20;;;;;;;10.53;1.67;;;;;;;;;;4891266;28;20189;-77
2021/10/30 00:53:43;;;;;;;9.53;1.47;;;;;;;;;;4892784;28;20216;-76
2021/10/30 00:56:07;;;;;;;19.07;2.83;;;1.40;43.70;;;;;;4892510;28;20192;-78
2021/10/30 00:58:34;;;;;;;8.40;1.33;;;1.40;43.70;;;;;;4874657;28;20304;-78
2021/10/30 01:00:58;;;;;;;9.30;1.47;;;1.40;43.70;;;;;;4889111;28;20181;-77
2021/10/30 01:03:22;;;;;;;13.50;1.97;;;1.40;43.70;;;;;;4892563;28;20211;-78
2021/10/30 01:05:45;;;;;;;9.40;1.47;;;;;;;;;;4892904;28;20213;-78
2021/10/30 01:08:12;;;;;;;17.03;2.40;;;;;;;;;;4892581;28;20310;-78
2021/10/30 01:10:35;;;;;;;15.07;2.30;;;;;;;;;;4891913;28;20658;-78
2021/10/30 01:12:58;;;;;;;14.23;2.13;;;;;;;;;;4892459;28;20196;-77
2021/10/30 01:15:20;;;;;;;11.17;1.80;;;;;;;;;;4892143;28;20658;-78
2021/10/30 01:17:43;;;;;;;10.67;1.67;;;;;;;;;;4895264;28;20296;-78
2021/10/30 01:20:08;;;;;;;16.70;2.43;;;2.20;44.20;;;;;;4896038;28;20185;-78
2021/10/30 01:22:35;;;;;;;11.07;1.70;;;;;;;;;;4895841;28;20642;-78
2021/10/30 01:24:59;;;;;;;9.17;1.40;;;;;;;;;;4896052;28;20241;-77
2021/10/30 01:27:22;;;;;;;19.07;2.70;;;1.10;51.20;;;;;;4895267;28;20731;-78
2021/10/30 01:29:45;;;;;;;11.80;1.80;;;;;;;;;;4877746;28;20255;-78
2021/10/30 01:32:08;;;;;;;17.73;2.57;;;;;;;;;;4866988;28;20193;-78
2021/10/30 01:34:31;;;;;;;9.43;1.43;;;;;;;;;;4895952;28;20603;-78
2021/10/30 01:36:55;;;;;;;11.93;1.90;;;1.10;51.00;;;;;;4895796;28;20234;-78
2021/10/30 01:39:18;;;;;;;13.03;1.97;;;;;;;;;;4877174;28;20202;-81
2021/10/30 01:41:40;;;;;;;12.77;1.87;;;;;;;;;;4895608;28;20184;-78
2021/10/30 01:44:04;;;;;;;15.73;2.23;;;1.10;50.80;;;;;;4894995;28;20230;-78
2021/10/30 01:46:27;;;;;;;12.70;1.90;;;;;;;;;;4877610;28;20205;-78
2021/10/30 01:48:51;;;;;;;10.70;1.70;;;;;;;;;;4872454;28;20241;-79
2021/10/30 01:51:14;;;;;;;17.73;2.60;;;;;;;;;;4895554;28;20188;-78
2021/10/30 01:53:37;;;;;;;9.73;1.50;;;1.10;51.20;;;;;;4894919;28;20217;-79
2021/10/30 01:56:02;;;;;;;12.70;1.90;;;;;;;;;;4894788;28;20193;-78
2021/10/30 01:58:25;;;;;;;13.50;2.00;;;;;;;;;;4867130;28;20194;-80
2021/10/30 02:00:48;;;;;;;20.00;2.93;;;0.90;51.20;;;;;;4893586;28;21009;-79
2021/10/30 02:03:11;;;;;;;22.20;3.27;;;;;;;;;;4865705;28;20655;-78
2021/10/30 02:05:34;;;;;;;10.73;1.70;;;;;;;;;;4877202;28;20185;-78
2021/10/30 02:07:57;;;;;;;18.57;2.70;;;;;;;;;;4866169;28;20205;-78
2021/10/30 02:10:21;;;;;;;21.30;3.10;;;0.80;50.80;;;;;;4892333;28;20238;-78
2021/10/30 02:12:45;;;;;;;8.33;1.27;;;0.80;50.80;;;;;;4869324;28;20625;-77
2021/10/30 02:15:08;;;;;;;18.00;2.60;;;0.70;50.90;;;;;;4892218;28;20903;-77
2021/10/30 02:17:32;;;;;;;11.30;1.67;;;;;;;;;;4895454;28;20181;-78
2021/10/30 02:19:55;;;;;;;11.97;1.80;;;;;;;;;;4894984;28;20177;-79
2021/10/30 02:22:18;;;;;;;20.30;2.93;;;;;;;;;;4889595;28;20196;-80
2021/10/30 02:24:41;;;;;;;8.63;1.33;;;;;;;;;;4889427;28;20589;-77
2021/10/30 02:27:05;;;;;;;11.30;1.70;;;0.60;50.50;;;;;;4893842;28;20258;-77
2021/10/30 02:29:28;;;;;;;11.50;1.77;;;;;;;;;;4887954;28;20189;-77
2021/10/30 02:31:51;;;;;;;10.13;1.60;;;;;;;;;;4895397;28;20189;-77
2021/10/30 02:34:14;;;;;;;23.57;3.30;;;;;;;;;;4860711;28;20250;-77
2021/10/30 02:36:37;;;;;;;8.47;1.30;;;;;;;;;;4894523;28;20651;-77
2021/10/30 02:38:59;;;;;;;9.57;1.47;;;;;;;;;;4894792;28;20185;-78
2021/10/30 02:41:22;;;;;;;11.53;1.73;;;;;;;;;;4894581;28;20666;-78
2021/10/30 02:43:46;;;;;;;9.70;1.47;;;0.50;50.30;;;;;;4894960;28;20707;-79
2021/10/30 02:46:09;;;;;;;18.67;2.60;;;;;;;;;;4870980;28;20210;-78
2021/10/30 02:48:32;;;;;;;12.83;1.90;;;;;;;;;;4871922;28;20198;-78
2021/10/30 02:50:54;;;;;;;15.67;2.20;;;;;;;;;;4890654;28;20243;-78
2021/10/30 02:53:17;;;;;;;16.40;2.30;;;;;;;;;;4893806;28;20300;-78
2021/10/30 02:55:40;;;;;;;16.30;2.40;;;;;;;;;;4894085;28;20658;-80
2021/10/30 02:58:03;;;;;;;11.83;1.70;;;;;;;;;;4893798;28;20609;-80
2021/10/30 03:00:26;;;;;;;39.03;5.27;;;0.40;50.40;;;;;;4885203;28;20222;-78
2021/10/30 03:02:51;;;;;;;9.20;1.43;;;;;;;;;;4876523;28;20275;-79
2021/10/30 03:05:14;;;;;;;19.23;2.83;;;;;;;;;;4893137;28;20192;-79
2021/10/30 03:07:38;;;;;;;10.47;1.60;;;;;;;;;;4893528;28;20613;-80
2021/10/30 03:10:01;;;;;;;7.50;1.20;;;;;;;;;;4894100;28;20189;-78
2021/10/30 03:12:23;;;;;;;14.07;2.10;;;;;;;;;;4893921;28;20192;-77
2021/10/30 03:14:46;;;;;;;9.83;1.50;;;;;;;;;;4893713;28;20185;-78
2021/10/30 03:17:10;;;;;;;15.40;2.27;;;0.30;50.30;;;;;;4893569;28;20238;-78
2021/10/30 03:19:33;;;;;;;9.40;1.50;;;;;;;;;;4894115;28;20231;-78
2021/10/30 03:21:56;;;;;;;8.03;1.30;;;;;;;;;;4893922;28;20185;-78
2021/10/30 03:24:19;;;;;;;17.23;2.53;;;;;;;;;;4893989;28;20242;-78
2021/10/30 03:26:41;;;;;;;5.43;0.93;;;;;;;;;;4894526;28;20208;-78
2021/10/30 03:29:04;;;;;;;12.50;1.90;;;;;;;;;;4875422;28;20193;-78
2021/10/30 03:31:27;;;;;;;8.53;1.40;;;;;;;;;;4873225;28;20757;-77
2021/10/30 03:33:51;;;;;;;5.30;0.90;;;0.30;50.30;;;;;;4890178;28;20823;-78
2021/10/30 03:36:13;;;;;;;12.87;1.93;;;;;;;;;;4893872;28;20181;-79
2021/10/30 03:38:37;;;;;;;7.07;1.17;;;;;;;;;;4876127;28;20193;-78
2021/10/30 03:41:00;;;;;;;8.33;1.27;;;;;;;;;;4868276;28;20753;-77
2021/10/30 03:43:23;;;;;;;10.53;1.60;;;;;;;;;;4890281;28;20192;-77
2021/10/30 03:45:48;;;;;;;7.23;1.17;;;;;;;;;;4894426;28;20713;-79
2021/10/30 03:48:12;;;;;;;26.13;3.57;;;;;;;;;;4893318;28;20274;-78
2021/10/30 03:50:37;;;;;;;8.80;1.40;;;0.20;50.70;;;;;;4894628;28;20185;-77
2021/10/30 03:52:59;;;;;;;9.70;1.40;;;;;;;;;;4892116;28;20258;-77
2021/10/30 03:55:22;;;;;;;8.17;1.20;;;;;;;;;;4894037;28;20238;-77
2021/10/30 03:57:45;;;;;;;9.97;1.53;;;;;;;;;;4894113;28;20590;-77
2021/10/30 04:00:09;;;;;;;16.80;2.30;;;0.10;50.50;;;;;;4893164;28;20238;-77
2021/10/30 04:02:39;;;;;;;7.03;1.07;;;;;;;;;;4871638;28;20931;-78
2021/10/30 04:05:01;;;;;;;10.50;1.53;;;;;;;;;;4893350;28;20192;-78
2021/10/30 04:07:25;;;;;;;10.57;1.53;;;0.00;50.40;;;;;;4893375;28;20217;-77
2021/10/30 04:09:48;;;;;;;8.37;1.27;;;;;;;;;;4893846;28;20184;-80
2021/10/30 04:12:11;;;;;;;18.17;2.60;;;0.00;50.40;;;;;;4872353;28;20666;-78
2021/10/30 04:14:54;;;;;;;15.40;2.13;;;;;;;;;;4890466;28;20190;-78
2021/10/30 04:17:37;;;;;;;10.47;1.60;;;;;;;;;;4887777;28;20584;-77
2021/10/30 04:20:19;;;;;;;19.63;2.77;;;;;;;;;;4892586;28;20187;-78
2021/10/30 04:23:03;;;;;;;4.70;0.73;;;0.10;50.20;;;;;;4890882;28;20183;-78
2021/10/30 04:25:46;;;;;;;8.80;1.27;;;;;;;;;;4892554;28;20665;-78
2021/10/30 04:28:22;;;;;;;14.07;2.03;;;;;;;;;;4893669;28;20212;-77
2021/10/30 04:30:45;;;;;;;11.17;1.60;;;;;;;;;;4893222;28;20606;-78
2021/10/30 04:33:13;;;;;;;14.33;2.00;;;;;;;;;;4893425;28;20189;-78
2021/10/30 04:35:39;;;;;;;11.60;1.70;;;;;;;;;;4893777;28;20234;-77
2021/10/30 04:38:01;;;;;;;6.90;1.10;;;;;;;;;;4893653;28;20658;-76
2021/10/30 04:40:25;;;;;;;14.37;2.03;;;0.10;50.40;;;;;;4892892;28;20200;-78
2021/10/30 04:42:48;;;;;;;14.20;1.97;;;;;;;;;;4892923;28;20520;-81
2021/10/30 04:45:11;;;;;;;18.00;2.57;;;;;;;;;;4887010;28;20255;-79
2021/10/30 04:47:34;;;;;;;9.13;1.40;;;;;;;;;;4887271;28;21307;-78
2021/10/30 04:49:57;;;;;;;9.03;1.40;;;;;;;;;;4864667;28;20205;-78
2021/10/30 04:52:19;;;;;;;20.40;2.87;;;;;;;;;;4892826;28;20285;-80
2021/10/30 04:54:42;;;;;;;9.33;1.40;;;;;;;;;;4879097;28;20651;-77
2021/10/30 04:57:07;;;;;;;18.60;2.63;;;0.10;50.40;;;;;;4896617;28;20189;-78
2021/10/30 04:59:30;;;;;;;10.33;1.57;;;;;;;;;;4888694;28;20185;-79
2021/10/30 05:01:52;;;;;;;14.30;2.10;;;;;;;;;;4895061;28;20238;-78
2021/10/30 05:04:15;;;;;;;19.47;2.63;;;;;;;;;;4896401;28;20184;-77
2021/10/30 05:06:38;;;;;;;8.93;1.33;;;;;;;;;;4878856;28;21308;-78
2021/10/30 05:09:01;;;;;;;5.80;0.93;;;;;;;;;;4868549;28;20655;-78
2021/10/30 05:11:23;;;;;;;10.33;1.57;;;;;;;;;;4895480;28;20629;-77
2021/10/30 05:13:47;;;;;;;7.73;1.20;;;-0.30;50.20;;;;;;4896399;28;20185;-77
2021/10/30 05:16:10;;;;;;;18.83;2.63;;;;;;;;;;4877514;28;20730;-79
2021/10/30 05:18:33;;;;;;;8.77;1.37;;;;;;;;;;4879145;28;20373;-80
2021/10/30 05:20:55;;;;;;;7.20;1.20;;;;;;;;;;4867493;28;20600;-78
2021/10/30 05:23:18;;;;;;;14.37;2.17;;;;;;;;;;4895344;28;20230;-79
2021/10/30 05:25:41;;;;;;;4.77;0.80;;;;;;;;;;4896688;28;20185;-77
2021/10/30 05:28:03;;;;;;;11.20;1.70;;;;;;;;;;4896235;28;20637;-77
2021/10/30 05:30:27;;;;;;;10.73;1.63;;;-0.40;49.80;;;;;;4891719;28;20201;-78
2021/10/30 05:32:50;;;;;;;7.83;1.27;;;;;;;;;;4896586;28;20193;-77
2021/10/30 05:35:31;;;;;;;11.33;1.70;;;;;;;;;;4896553;28;20180;-77
2021/10/30 05:38:14;;;;;;;17.53;2.50;;;-0.30;49.60;;;;;;4887398;28;20642;-78
2021/10/30 05:40:37;;;;;;;7.97;1.27;;;;;;;;;;4889926;28;20685;-78
2021/10/30 05:42:59;;;;;;;9.73;1.50;;;;;;;;;;4896724;28;20188;-77
2021/10/30 05:45:22;;;;;;;6.40;1.00;;;;;;;;;;4895497;28;20271;-79
2021/10/30 05:47:46;;;;;;;10.30;1.53;;;-0.10;49.40;;;;;;4896146;28;20939;-78
2021/10/30 05:50:10;;;;;;;17.67;2.47;;;0.00;49.40;;;;;;4895979;28;21027;-79
2021/10/30 05:52:33;;;;;;;14.27;2.03;;;;;;;;;;4896225;28;20221;-78
2021/10/30 05:54:56;;;;;;;11.17;1.60;;;;;;;;;;4895827;28;20238;-78
2021/10/30 05:57:19;;;;;;;14.23;2.07;;;;;;;;;;4878294;28;20423;-80
2021/10/30 05:59:41;;;;;;;6.73;1.10;;;;;;;;;;4868365;28;21031;-77
2021/10/30 06:02:05;;;;;;;11.57;1.57;;;;;;;;;;4890866;28;20235;-77
2021/10/30 06:04:29;;;;;;;9.53;1.43;;;0.30;50.20;;;;;;4895230;28;20188;-77
2021/10/30 06:06:52;;;;;;;8.43;1.23;;;;;;;;;;4875128;28;20209;-77
2021/10/30 06:09:15;;;;;;;15.13;2.10;;;;;;;;;;4894275;28;20273;-77
2021/10/30 06:11:38;;;;;;;10.57;1.53;;;;;;;;;;4889711;28;20658;-78
2021/10/30 06:14:03;;;;;;;5.23;0.80;;;;;;;;;;4896153;28;20666;-77
2021/10/30 06:16:26;;;;;;;12.67;1.83;;;;;;;;;;4876607;28;20682;-79
2021/10/30 06:18:49;;;;;;;12.17;1.77;;;;;;;;;;4896037;28;20579;-78
2021/10/30 06:21:13;;;;;;;16.23;2.20;;;0.60;49.90;;;;;;4895419;28;20644;-77
2021/10/30 06:23:36;;;;;;;9.43;1.40;;;;;;;;;;4895939;28;20988;-78
2021/10/30 06:25:59;;;;;;;12.90;1.80;;;;;;;;;;4888383;28;20246;-78
2021/10/30 06:28:22;;;;;;;8.20;1.23;;;;;;;;;;4895175;28;20220;-77
2021/10/30 06:30:46;;;;;;;9.30;1.47;;;;;;;;;;4895741;28;20184;-77
2021/10/30 06:33:08;;;;;;;17.20;2.33;;;;;;;;;;4895161;28;20181;-77
2021/10/30 06:35:31;;;;;;;9.17;1.30;;;;;;;;;;4895396;28;20193;-77
2021/10/30 06:37:56;;;;;;;13.27;1.93;;;1.50;42.70;;;;;;4894601;28;20188;-78
2021/10/30 06:40:20;;;;;;;16.83;2.30;;;;;;;;;;4894876;28;20738;-78
2021/10/30 06:42:43;;;;;;;12.23;1.70;;;2.00;42.90;;;;;;4894296;28;20181;-77
2021/10/30 06:45:07;;;;;;;23.30;3.17;;;2.20;43.20;;;;;;4890740;28;20200;-77
2021/10/30 06:47:31;;;;;;;10.33;1.50;;;;;;;;;;4884198;28;20883;-77
2021/10/30 06:49:56;;;;;;;10.43;1.50;;;;;;;;;;4887775;28;20213;-77
2021/10/30 06:52:19;;;;;;;21.60;2.87;;;;;;;;;;4895497;28;20743;-78
2021/10/30 06:54:43;;;;;;;6.90;1.10;;;2.80;43.80;;;;;;4895691;28;20184;-77
2021/10/30 06:57:07;;;;;;;22.10;2.90;;;3.00;43.80;;;;;;4895182;28;20536;-77
2021/10/30 06:59:31;;;;;;;14.93;2.07;;;;;;;;;;4895504;28;20180;-78
2021/10/30 07:01:54;;;;;;;9.03;1.33;;;;;;;;;;4875904;28;20224;-76
2021/10/30 07:04:17;;;;;;;19.10;2.57;;;;;;;;;;4895271;28;20242;-77
2021/10/30 07:06:39;;;;;;;15.20;2.10;;;;;;;;;;4895295;28;20739;-78
2021/10/30 07:09:02;;;;;;;8.00;1.13;;;;;;;;;;4894850;28;20217;-77
2021/10/30 07:11:27;;;;;;;10.57;1.47;;;4.00;44.50;;;;;;4895565;28;20646;-78
2021/10/30 07:13:50;;;;;;;13.13;1.80;;;;;;;;;;4876921;28;20260;-78
2021/10/30 07:16:15;;;;;;;17.57;2.30;;;;;;;;;;4876749;28;20227;-78
2021/10/30 07:18:38;;;;;;;9.50;1.40;;;;;;;;;;4894735;28;20189;-78
2021/10/30 07:21:00;;;;;;;11.13;1.57;;;;;;;;;;4895422;28;20238;-78
2021/10/30 07:23:24;;;;;;;9.27;1.37;;;;;;;;;;4894906;28;20192;-79
2021/10/30 07:25:46;;;;;;;10.27;1.43;;;;;;;;;;4894080;28;20246;-81
2021/10/30 07:28:11;;;;;;;24.90;3.13;;;5.70;45.40;;;;;;4886983;28;20670;-78
2021/10/30 07:30:34;;;;;;;16.87;2.27;;;;;;;;;;4893764;28;20184;-79
2021/10/30 07:32:57;;;;;;;10.73;1.53;;;;;;;;;;4894853;28;20188;-78
2021/10/30 07:35:20;;;;;;;21.27;2.73;;;7.40;46.20;;;;;;4894534;28;20184;-78
2021/10/30 07:37:43;;;;;;;16.70;2.17;;;;;;;;;;4876257;28;20189;-78
2021/10/30 07:40:07;;;;;;;16.63;2.27;;;10.10;48.30;;;;;;4865472;28;20202;-79
2021/10/30 07:42:30;;;;;;;18.20;2.47;;;;;;;;;;4887296;28;20188;-78
2021/10/30 07:44:54;;;;;;;9.63;1.37;;;12.10;52.10;;;;;;4889094;28;20192;-78
2021/10/30 07:47:17;;;;;;;29.73;3.67;;;;;;;;;;4893835;28;20710;-78
2021/10/30 07:49:40;;;;;;;18.30;2.43;;;;;;;;;;4893821;28;20736;-78
2021/10/30 07:52:03;;;;;;;9.60;1.47;;;13.20;54.80;;;;;;4893304;28;20618;-78
2021/10/30 07:54:26;;;;;;;14.57;2.00;;;;;;;;;;4866632;28;20228;-79
2021/10/30 07:56:49;;;;;;;12.33;1.70;;;;;;;;;;4887753;28;20235;-79
2021/10/30 07:59:12;;;;;;;28.17;3.43;;;;;;;;;;4867888;28;20623;-78
2021/10/30 08:01:35;;;;;;;16.27;2.03;;;13.40;55.30;;;;;;4892167;28;20230;-79
2021/10/30 08:03:58;;;;;;;12.77;1.73;;;;;;;;;;4894904;28;20188;-78
2021/10/30 08:06:21;;;;;;;15.50;2.00;;;;;;;;;;4893612;28;20879;-79
2021/10/30 08:08:44;;;;;;;11.93;1.67;;;;;;;;;;4894234;28;20258;-78
2021/10/30 08:11:06;;;;;;;27.43;3.30;;;;;;;;;;4894041;28;20658;-80
2021/10/30 08:13:29;;;;;;;21.57;2.87;;;;;;;;;;4894154;28;20181;-78
2021/10/30 08:15:53;;;;;;;13.30;2.90;;;;;;;;;;4893585;28;20191;-78
2021/10/30 08:18:17;;;;;;;23.10;2.80;;;13.20;55.50;;;;;;4894081;28;20258;-79
2021/10/30 08:20:40;;;;;;;15.60;2.00;;;;;;;;;;4894306;28;20242;-78
2021/10/30 08:23:02;;;;;;;9.67;1.33;;;;;;;;;;4890315;28;20243;-79
2021/10/30 08:25:25;;;;;;;14.47;1.93;;;;;;;;;;4894055;28;20237;-79
2021/10/30 08:27:48;;;;;;;15.97;5.20;;;;;;;;;;4897740;28;20230;-78
2021/10/30 08:30:11;;;;;;;43.27;15.27;;;13.90;56.10;;;;;;4897005;28;20216;-79
2021/10/30 08:32:34;;;;;;;28.13;3.43;;;;;;;;;;4879156;28;20532;-79
2021/10/30 08:34:58;;;;;;;22.50;2.83;;;13.60;55.70;;;;;;4878631;28;20690;-79
2021/10/30 08:37:20;;;;;;;32.07;3.97;;;;;;;;;;4897658;28;20193;-79
2021/10/30 08:39:43;;;;;;;10.27;1.47;;;;;;;;;;4897912;28;20261;-79
2021/10/30 08:42:07;;;;;;;25.73;3.07;;;13.40;55.90;;;;;;4879723;28;20255;-79
2021/10/30 08:44:29;;;;;;;19.10;2.37;;;;;;;;;;4897144;28;20231;-78
2021/10/30 08:46:53;;;;;;;13.07;1.73;;;13.50;55.90;;;;;;4878807;28;20231;-79
2021/10/30 08:49:16;;;;;;;18.63;2.27;;;;;;;;;;4879086;28;20242;-78
2021/10/30 08:51:41;;;;;;;17.20;2.20;;;13.60;55.80;;;;;;4878854;28;20235;-79
2021/10/30 08:54:05;;;;;;;7.97;1.17;;;13.70;55.90;;;;;;4889029;28;20722;-77
2021/10/30 08:56:28;;;;;;;12.77;1.70;;;;;;;;;;4896368;28;20275;-78
2021/10/30 08:58:50;;;;;;;14.07;1.90;;;;;;;;;;4895653;28;20200;-78
2021/10/30 09:01:13;;;;;;;24.00;2.80;;;;;;;;;;4894074;28;20692;-79
2021/10/30 09:03:36;;;;;;;22.23;2.80;;;;;;;;;;4897671;28;20181;-79
2021/10/30 09:06:00;;;;;;;17.27;2.27;;;14.40;56.30;;;;;;4871566;28;20197;-78
2021/10/30 09:08:26;;;;;;;26.63;3.67;;;14.50;56.50;;;;;;4879342;28;20201;-78
2021/10/30 09:10:51;;;;;;;29.43;13.37;;;14.70;56.60;;;;;;4864785;28;20605;-79
2021/10/30 09:13:14;;;;;;;29.50;17.60;;;;;;;;;;4896551;28;20238;-79
2021/10/30 09:15:39;;;;;;;74.30;66.63;;;15.10;56.80;;;;;;4878673;28;20328;-78
2021/10/30 09:18:03;;;;;;;108.50;94.67;;;15.50;57.00;;;;;;4896462;28;20207;-78
2021/10/30 09:20:32;;;;;;;239.90;124.40;;;15.90;57.20;;;;;;4870463;28;20430;-79
2021/10/30 09:22:55;;;;;;;288.93;139.30;;;16.30;57.40;;;;;;4875562;28;20609;-79
2021/10/30 09:25:19;;;;;;;273.40;135.93;;;16.70;57.60;;;;;;4852566;28;20194;-79
2021/10/30 09:27:50;;;;;;;287.97;142.73;;;17.40;58.00;;;;;;4896530;28;20189;-79
2021/10/30 09:30:14;;;;;;;337.47;150.47;;;;;;;;;;4896421;28;20254;-79
2021/10/30 09:32:37;;;;;;;343.93;173.57;;;;;;;;;;4879713;28;20748;-79
2021/10/30 09:34:59;;;;;;;362.67;180.27;;;;;;;;;;4847886;28;20202;-80
2021/10/30 09:37:24;;;;;;;302.63;163.97;;;24.80;61.90;;;;;;4859049;28;20197;-79
2021/10/30 09:39:47;;;;;;;315.53;171.00;;;;;;;;;;4860245;28;20601;-78
2021/10/30 09:42:24;;;;;;;339.53;201.70;;;29.20;49.10;;;;;;4860183;28;20182;-79
2021/10/30 09:44:47;;;;;;;374.87;225.73;;;;;;;;;;4877965;28;20528;-78
2021/10/30 09:47:22;;;;;;;378.50;246.63;;;31.20;50.10;;;;;;4894130;28;20194;-78
2021/10/30 09:49:45;;;;;;;390.47;270.57;;;;;;;;;;4879581;28;20263;-78
2021/10/30 09:52:12;;;;;;;370.73;273.27;;;33.40;50.90;;;;;;4878640;28;20242;-79
2021/10/30 09:54:37;;;;;;;389.10;304.40;;;33.20;51.00;;;;;;4897295;28;20173;-77
2021/10/30 09:57:00;;;;;;;382.43;320.17;;;;;;;;;;4898045;28;20249;-80
2021/10/30 09:59:26;;;;;;;337.30;294.33;;;30.00;49.90;;;;;;4898040;28;20697;-77
2021/10/30 10:01:50;;;;;;;359.90;309.27;;;28.90;49.50;;;;;;4895295;28;20749;-78
2021/10/30 10:04:14;;;;;;;375.03;279.97;;;27.60;49.00;;;;;;4896678;28;20188;-79
2021/10/30 10:06:37;;;;;;;342.23;262.73;;;;;;;;;;4896262;28;20210;-78
2021/10/30 10:09:01;;;;;;;392.77;250.37;;;;;;;;;;4896836;28;20534;-78
2021/10/30 10:11:25;;;;;;;388.13;250.00;;;;;;;;;;4883773;28;20678;-77
2021/10/30 10:13:50;;;;;;;473.37;231.10;;;22.50;61.80;;;;;;4877039;28;20230;-80
2021/10/30 10:16:16;;;;;;;462.93;217.67;;;21.70;61.40;;;;;;4889457;28;20181;-79
2021/10/30 10:18:39;;;;;;;465.40;226.30;;;21.50;61.40;;;;;;4889101;28;20837;-79
2021/10/30 10:21:03;;;;;;;454.47;215.07;;;21.50;61.30;;;;;;4896682;28;20230;-80
2021/10/30 10:23:26;;;;;;;444.43;202.47;;;;;;;;;;4895726;28;20245;-79
2021/10/30 10:25:51;;;;;;;454.73;214.90;;;22.40;61.60;;;;;;4875493;28;20753;-79
2021/10/30 10:28:19;;;;;;;464.50;211.07;;;23.90;62.20;;;;;;4890584;28;20597;-79
2021/10/30 10:31:00;;;;;;;462.03;228.17;;;26.00;48.20;;;;;;4896027;28;20200;-77
2021/10/30 10:33:25;;;;;;;474.10;246.87;;;27.90;49.00;;;;;;4875147;28;20228;-80
2021/10/30 10:36:25;;;;;;;471.53;276.47;;;29.30;49.50;;;;;;4893523;28;20690;-76
2021/10/30 10:39:22;;;;;;;473.77;282.70;;;31.10;50.20;;;;;;4890476;28;20180;-77
2021/10/30 10:41:50;;;;;;;455.60;296.13;;;32.10;50.50;;;;;;4872436;28;20196;-79
2021/10/30 10:44:15;;;;;;;467.30;329.23;;;33.20;50.90;;;;;;4875157;28;20194;-81
2021/10/30 10:46:40;;;;;;;435.03;327.00;;;;;;;;;;4888687;28;20258;-82
2021/10/30 10:49:15;;;;;;;433.80;329.67;;;34.20;51.30;;;;;;4895144;28;20185;-82
2021/10/30 10:51:46;;;;;;;421.80;318.80;;;33.50;51.10;;;;;;4860645;28;20237;-80
2021/10/30 10:54:09;;;;;;;458.80;317.40;;;;;;;;;;4894953;28;20182;-81
2021/10/30 10:56:34;;;;;;;468.23;288.60;;;29.00;49.50;;;;;;4877434;28;20216;-80
2021/10/30 10:59:07;;;;;;;472.73;272.40;;;27.30;49.00;;;;;;4894806;28;20661;-81
2021/10/30 11:01:30;;;;;;;463.07;263.27;;;;;;;;;;4868276;28;20324;-83
2021/10/30 11:03:54;;;;;;;467.70;258.23;;;;;;;;;;4894578;28;20179;-83
2021/10/30 11:06:33;;;;;;;469.77;240.67;;;25.30;48.20;;;;;;4875990;28;20229;-81
2021/10/30 11:09:11;;;;;;;457.73;241.83;;;24.60;62.80;;;;;;4870191;28;20175;-82
2021/10/30 11:11:34;;;;;;;461.17;236.53;;;;;;;;;;4892719;28;20223;-82
2021/10/30 11:14:03;;;;;;;462.23;241.00;;;25.30;48.20;;;;;;4876867;28;20192;-81
2021/10/30 11:16:29;;;;;;;463.87;245.90;;;26.30;48.50;;;;;;4890851;28;20195;-80
2021/10/30 11:19:02;;;;;;;466.83;253.00;;;28.40;49.30;;;;;;4895046;28;20530;-80
2021/10/30 11:21:34;;;;;;;465.10;255.27;;;29.80;49.80;;;;;;4868134;28;20269;-81
2021/10/30 11:23:58;;;;;;;467.13;276.43;;;31.20;50.40;;;;;;4891391;28;20176;-82
2021/10/30 11:26:26;;;;;;;490.90;296.53;;;33.00;51.00;;;;;;4876147;28;20265;-82
2021/10/30 11:28:50;;;;;;;475.37;295.53;;;;;;;;;;4893900;28;20577;-82
2021/10/30 11:31:13;;;;;;;498.43;320.90;;;;;;;;;;4893793;28;20178;-81
2021/10/30 11:33:35;;;;;;;480.03;315.03;;;;;;;;;;4894689;28;20583;-82
2021/10/30 11:36:01;;;;;;;469.60;311.60;;;35.10;51.70;;;;;;4874086;28;20241;-83
2021/10/30 11:38:25;;;;;;;470.90;310.20;;;36.20;52.10;;;;;;4867603;28;20239;-80
2021/10/30 11:40:57;;;;;;;487.60;324.40;;;36.20;52.20;;;;;;4892487;28;20212;-81
2021/10/30 11:43:20;;;;;;;475.83;314.83;;;;;;;;;;4893716;28;20246;-81
2021/10/30 11:45:43;;;;;;;475.60;326.83;;;;;;;;;;4873594;28;20235;-81
2021/10/30 11:48:06;;;;;;;479.73;351.03;;;;;;;;;;4891870;28;20180;-82
2021/10/30 11:50:28;;;;;;;476.93;359.87;;;;;;;;;;4869278;28;20189;-82
2021/10/30 11:53:02;;;;;;;480.47;357.47;;;41.40;53.80;;;;;;4893990;28;20251;-83
2021/10/30 11:55:26;;;;;;;478.73;367.90;;;41.80;54.00;;;;;;4885100;28;20263;-81
2021/10/30 11:57:49;;;;;;;485.33;398.50;;;;;;;;;;4894440;28;20646;-82
2021/10/30 12:00:12;;;;;;;498.90;377.10;;;42.80;54.40;;;;;;4893490;28;20234;-81
2021/10/30 12:02:35;;;;;;;479.40;381.20;;;;;;;;;;4890856;28;20616;-82
2021/10/30 12:05:07;;;;;;;478.67;371.80;;;41.00;53.80;;;;;;4851878;28;20244;-82
2021/10/30 12:07:30;;;;;;;479.30;371.07;;;;;;;;;;4887218;28;20192;-82
2021/10/30 12:10:00;;;;;;;473.23;356.07;;;40.50;53.70;;;;;;4894335;28;20214;-83
2021/10/30 12:12:25;;;;;;;505.53;370.90;;;39.20;53.20;;;;;;4891520;28;20879;-81
2021/10/30 12:14:49;;;;;;;475.57;359.23;;;40.30;53.60;;;;;;4892368;28;20680;-81
2021/10/30 12:17:15;;;;;;;490.07;367.63;;;41.20;53.80;;;;;;4892254;28;20250;-82
2021/10/30 12:19:41;;;;;;;488.70;363.87;;;41.50;53.90;;;;;;4875102;28;20551;-82
2021/10/30 12:22:08;;;;;;;486.30;368.92;;;42.50;54.30;;;;;;4893199;28;20748;-81
2021/10/30 12:24:31;;;;;;;474.35;374.45;;;;;;;;;;4873289;28;20232;-84
2021/10/30 12:26:55;;;;;;;492.83;389.07;;;41.00;53.70;;;;;;4874775;28;20189;-83
2021/10/30 12:29:20;;;;;;;499.83;388.60;;;41.50;54.00;;;;;;4872306;28;20205;-82
2021/10/30 12:31:56;;;;;;;490.92;386.52;;;42.00;54.10;;;;;;4863517;28;20270;-83
2021/10/30 12:34:25;;;;;;;507.45;399.90;;;43.60;54.60;;;;;;4874961;28;20205;-83
2021/10/30 12:36:48;;;;;;;484.40;373.33;;;;;;;;;;4894274;28;20188;-83
2021/10/30 12:39:21;;;;;;;507.05;403.88;;;42.70;54.30;;;;;;4875456;28;20197;-83
2021/10/30 12:41:44;;;;;;;473.92;355.13;;;;;;;;;;4874382;28;20213;-81
2021/10/30 12:44:07;;;;;;;492.43;361.07;;;;;;;;;;4893098;28;20230;-82
2021/10/30 12:47:00;;;;;;;483.07;374.30;;;40.60;53.70;;;;;;4876359;28;20601;-83
2021/10/30 12:49:25;;;;;;;461.10;358.00;;;41.60;54.00;;;;;;4874845;28;20739;-83
2021/10/30 12:51:56;;;;;;;484.40;361.97;;;41.10;53.90;;;;;;4874981;28;20326;-81
2021/10/30 12:54:24;;;;;;;507.37;380.87;;;41.10;53.80;;;;;;4844262;28;20518;-81
2021/10/30 12:56:47;;;;;;;488.80;378.53;;;;;;;;;;4874334;28;20189;-81
2021/10/30 12:59:12;;;;;;;521.80;405.55;;;41.40;53.90;;;;;;4873940;28;20662;-82
2021/10/30 13:01:35;;;;;;;500.05;415.90;;;;;;;;;;4871895;28;20213;-84
2021/10/30 13:04:03;;;;;;;503.52;404.05;;;41.80;54.10;;;;;;4847216;28;20602;-83
2021/10/30 13:06:27;;;;;;;494.52;397.88;;;39.20;53.30;;;;;;4855486;28;20201;-83
2021/10/30 13:08:51;;;;;;;502.80;405.15;;;38.00;52.90;;;;;;4857013;28;20202;-83
2021/10/30 13:11:17;;;;;;;508.33;403.70;;;;;;;;;;4882174;28;20282;-84
2021/10/30 13:13:39;;;;;;;496.30;390.20;;;;;;;;;;4894504;28;20200;-83
2021/10/30 13:16:02;;;;;;;476.63;364.55;;;;;;;;;;4878453;28;20201;-81
2021/10/30 13:18:25;;;;;;;468.15;368.88;;;;;;;;;;4879762;28;20719;-82
2021/10/30 13:20:49;;;;;;;491.33;364.05;;;33.30;51.20;;;;;;4878359;28;20209;-80
2021/10/30 13:23:11;;;;;;;501.53;358.93;;;;;;;;;;4879176;28;20699;-82